Time;durP1;ratioP1;P1;durP2;ratioP2;P2;SDS_P1;SDS_P2;PMS_P1;PMS_P2;Temp;Humidity;BMP_temperature;BMP_pressure;BME280_temperature;BME280_humidity;BME280_pressure;Samples;Min_cycle;Max_cycle;Signal;HPM_P1;HPM_P2
2022/06/23 00:02:22;;;;;;;3.58;3.22;;;14.60;99.90;;;;;;5018590;28;20320;-62
2022/06/23 00:04:51;;;;;;;3.35;3.03;;;14.50;99.90;;;;;;5014593;28;20662;-62
2022/06/23 00:07:24;;;;;;;3.53;3.22;;;14.40;99.90;;;;;;5014025;28;20215;-62
2022/06/23 00:09:53;;;;;;;3.28;2.92;;;14.50;99.90;;;;;;5010299;28;20201;-63
2022/06/23 00:12:28;;;;;;;3.78;3.45;;;14.50;99.90;;;;;;5027455;28;20279;-62
2022/06/23 00:15:15;;;;;;;5.45;3.47;;;14.40;99.90;;;;;;5012189;28;20209;-63
2022/06/23 00:17:44;;;;;;;4.07;3.70;;;14.50;99.90;;;;;;5013962;28;20232;-62
2022/06/23 00:20:15;;;;;;;4.20;3.80;;;14.40;99.90;;;;;;5017337;28;20205;-63
2022/06/23 00:22:45;;;;;;;4.35;3.67;;;14.40;99.90;;;;;;5020739;28;20212;-62
2022/06/23 00:25:29;;;;;;;3.65;3.35;;;14.40;99.90;;;;;;4993553;28;20788;-63
2022/06/23 00:27:59;;;;;;;3.67;3.33;;;14.40;99.90;;;;;;5028046;28;20205;-63
2022/06/23 00:30:29;;;;;;;3.50;3.20;;;14.40;99.90;;;;;;5019460;28;20205;-62
2022/06/23 00:32:56;;;;;;;3.97;3.58;;;14.40;99.90;;;;;;5014571;28;20226;-62
2022/06/23 00:35:23;;;;;;;3.65;3.35;;;14.30;99.90;;;;;;5032776;28;20213;-63
2022/06/23 00:37:52;;;;;;;6.15;3.55;;;14.30;99.90;;;;;;5017168;28;20245;-63
2022/06/23 00:40:22;;;;;;;4.38;3.53;;;14.30;99.90;;;;;;5020239;28;20205;-62
2022/06/23 00:42:53;;;;;;;6.05;3.75;;;14.20;99.90;;;;;;5004651;28;20213;-62
2022/06/23 00:45:28;;;;;;;4.38;3.72;;;14.20;99.90;;;;;;5018379;28;20671;-63
2022/06/23 00:48:04;;;;;;;4.85;3.47;;;14.20;99.90;;;;;;5023197;28;20280;-63
2022/06/23 00:50:36;;;;;;;4.07;3.65;;;14.20;99.90;;;;;;5019685;28;20731;-63
2022/06/23 00:53:14;;;;;;;5.03;3.65;;;14.20;99.90;;;;;;5009144;28;20210;-63
2022/06/23 00:55:47;;;;;;;5.15;3.78;;;14.10;99.90;;;;;;5027938;28;20879;-62
2022/06/23 00:58:32;;;;;;;5.97;3.88;;;14.20;99.90;;;;;;5002555;28;20224;-62
2022/06/23 01:01:06;;;;;;;3.90;3.50;;;14.10;99.90;;;;;;5015365;28;20343;-62
2022/06/23 01:03:40;;;;;;;4.22;3.58;;;14.10;99.90;;;;;;5018251;28;20208;-63
2022/06/23 01:06:13;;;;;;;3.65;3.35;;;14.10;99.90;;;;;;5027513;28;20735;-62
2022/06/23 01:08:48;;;;;;;4.72;3.65;;;14.00;99.90;;;;;;5021801;28;21027;-63
2022/06/23 01:11:24;;;;;;;3.92;3.03;;;13.90;99.90;;;;;;5003575;28;20197;-63
2022/06/23 01:14:02;;;;;;;3.35;3.05;;;13.80;99.90;;;;;;5009571;28;20659;-63
2022/06/23 01:16:34;;;;;;;3.30;3.00;;;13.70;99.90;;;;;;4999850;28;21045;-63
2022/06/23 01:19:19;;;;;;;2.70;2.45;;;13.60;99.90;;;;;;5027714;28;20235;-62
2022/06/23 01:21:51;;;;;;;2.65;2.45;;;13.50;99.90;;;;;;5016408;28;20211;-63
2022/06/23 01:24:27;;;;;;;4.00;2.63;;;13.50;99.90;;;;;;5013119;28;20201;-63
2022/06/23 01:27:22;;;;;;;6.82;3.35;;;13.40;99.90;;;;;;5021099;28;20220;-63
2022/06/23 01:29:54;;;;;;;7.50;3.80;;;13.40;99.90;;;;;;5010667;28;20201;-62
2022/06/23 01:32:26;;;;;;;9.85;4.35;;;13.30;99.90;;;;;;5006222;28;20688;-62
2022/06/23 01:34:57;;;;;;;9.15;4.32;;;13.40;99.90;;;;;;5008743;28;20210;-63
2022/06/23 01:37:28;;;;;;;5.38;4.15;;;13.30;99.90;;;;;;5028929;28;20309;-63
2022/06/23 01:40:04;;;;;;;11.10;4.40;;;13.40;99.90;;;;;;5013321;28;21454;-63
2022/06/23 01:42:39;;;;;;;8.88;3.70;;;13.40;99.90;;;;;;5023884;28;20197;-62
2022/06/23 01:45:12;;;;;;;5.35;3.83;;;13.40;99.90;;;;;;5010625;28;20743;-63
2022/06/23 01:47:46;;;;;;;4.45;3.30;;;13.50;99.90;;;;;;5001502;28;21034;-62
2022/06/23 01:50:30;;;;;;;5.68;3.42;;;13.60;99.90;;;;;;5026849;28;20201;-62
2022/06/23 01:53:25;;;;;;;5.00;3.83;;;13.70;99.90;;;;;;5022990;28;20205;-62
2022/06/23 01:56:10;;;;;;;4.22;3.55;;;13.80;99.90;;;;;;4974134;28;21332;-63
2022/06/23 01:58:52;;;;;;;4.13;3.40;;;13.80;99.90;;;;;;5016794;28;20229;-63
2022/06/23 02:01:28;;;;;;;4.05;3.45;;;13.80;99.90;;;;;;5011741;28;20201;-62
2022/06/23 02:04:02;;;;;;;3.67;3.30;;;13.80;99.90;;;;;;5026798;28;20216;-63
2022/06/23 02:06:39;;;;;;;3.75;2.92;;;13.60;99.90;;;;;;5015171;28;20205;-62
2022/06/23 02:09:13;;;;;;;3.22;2.83;;;13.70;99.90;;;;;;5020092;28;20257;-63
2022/06/23 02:11:45;;;;;;;3.55;2.88;;;13.60;99.90;;;;;;5024778;28;20190;-62
2022/06/23 02:14:21;;;;;;;6.35;2.80;;;13.60;99.90;;;;;;5032439;28;20259;-62
2022/06/23 02:16:56;;;;;;;3.47;2.92;;;13.60;99.90;;;;;;4992634;28;20559;-63
2022/06/23 02:19:34;;;;;;;3.58;2.85;;;13.50;99.90;;;;;;5036786;28;20220;-62
2022/06/23 02:22:07;;;;;;;3.53;2.83;;;13.60;99.90;;;;;;5018185;28;20244;-63
2022/06/23 02:24:39;;;;;;;3.70;3.13;;;13.50;99.90;;;;;;5017380;28;20553;-62
2022/06/23 02:27:16;;;;;;;2.80;2.58;;;13.50;99.90;;;;;;5018618;28;20201;-62
2022/06/23 02:29:46;;;;;;;3.75;3.15;;;13.40;99.90;;;;;;5020870;28;20240;-62
2022/06/23 02:32:18;;;;;;;4.88;3.28;;;13.40;99.90;;;;;;5008401;28;20232;-63
2022/06/23 02:34:52;;;;;;;3.55;3.10;;;13.40;99.90;;;;;;5024418;28;20202;-62
2022/06/23 02:37:51;;;;;;;4.40;4.00;;;13.40;99.90;;;;;;5019990;28;20210;-62
2022/06/23 02:40:22;;;;;;;5.20;3.70;;;13.40;99.90;;;;;;5033799;28;20205;-62
2022/06/23 02:42:54;;;;;;;4.63;3.63;;;13.40;99.90;;;;;;5018465;28;20200;-62
2022/06/23 02:45:49;;;;;;;4.03;3.42;;;13.30;99.90;;;;;;5028962;28;20194;-63
2022/06/23 02:48:35;;;;;;;4.05;3.33;;;13.30;99.90;;;;;;5019014;28;20229;-62
2022/06/23 02:51:19;;;;;;;3.28;2.92;;;13.30;99.90;;;;;;5024321;28;20237;-63
2022/06/23 02:54:36;;;;;;;3.03;2.70;;;13.30;99.90;;;;;;5010997;28;20214;-63
2022/06/23 02:57:20;;;;;;;3.20;2.90;;;13.30;99.90;;;;;;4985490;28;20206;-63
2022/06/23 02:59:52;;;;;;;3.45;3.03;;;13.30;99.90;;;;;;5028944;28;20233;-62
2022/06/23 03:02:26;;;;;;;2.80;2.60;;;13.30;99.90;;;;;;5001793;28;20208;-63
2022/06/23 03:04:57;;;;;;;3.55;3.03;;;13.30;99.90;;;;;;5014829;28;20208;-62
2022/06/23 03:07:31;;;;;;;3.40;3.10;;;13.40;99.90;;;;;;5020778;28;20995;-62
2022/06/23 03:10:06;;;;;;;3.63;3.08;;;13.80;99.90;;;;;;5029272;28;20204;-62
2022/06/23 03:12:42;;;;;;;5.95;3.50;;;13.30;99.90;;;;;;5013431;28;21133;-62
2022/06/23 03:15:14;;;;;;;4.40;3.47;;;13.30;99.90;;;;;;5029729;28;20197;-63
2022/06/23 03:17:47;;;;;;;4.25;3.40;;;13.50;99.90;;;;;;5016824;28;20256;-63
2022/06/23 03:20:29;;;;;;;4.28;3.50;;;13.20;99.90;;;;;;5004131;28;20212;-62
2022/06/23 03:23:03;;;;;;;4.22;3.67;;;13.20;99.90;;;;;;5026686;28;20776;-62
2022/06/23 03:25:37;;;;;;;3.72;3.42;;;13.20;99.90;;;;;;5022614;28;20924;-62
2022/06/23 03:28:10;;;;;;;4.53;3.53;;;13.20;99.90;;;;;;5018609;28;20561;-62
2022/06/23 03:30:42;;;;;;;4.10;3.70;;;13.20;99.90;;;;;;5022621;28;20198;-62
2022/06/23 03:33:15;;;;;;;5.25;3.80;;;13.20;99.90;;;;;;4987175;28;20236;-63
2022/06/23 03:35:50;;;;;;;6.72;4.13;;;13.70;99.90;;;;;;5002281;28;20231;-63
2022/06/23 03:41:36;;;;;;;4.40;4.00;;;13.10;99.90;;;;;;5012225;28;20235;-62
2022/06/23 03:44:05;;;;;;;5.80;4.55;;;13.30;99.90;;;;;;5016231;28;20880;-62
2022/06/23 03:46:36;;;;;;;5.05;3.92;;;13.20;99.90;;;;;;5028429;28;20201;-62
2022/06/23 03:49:14;;;;;;;4.07;3.67;;;13.30;99.90;;;;;;5009535;28;20214;-62
2022/06/23 03:51:50;;;;;;;6.53;4.47;;;13.30;99.90;;;;;;5008830;28;20225;-62
2022/06/23 03:54:22;;;;;;;6.85;4.22;;;13.20;99.90;;;;;;5019715;28;20770;-62
2022/06/23 03:56:53;;;;;;;5.90;4.20;;;13.30;99.90;;;;;;5014616;28;20226;-62
2022/06/23 03:59:25;;;;;;;7.22;4.32;;;13.30;99.90;;;;;;5015317;28;20229;-62
2022/06/23 04:01:58;;;;;;;4.88;4.25;;;13.30;99.90;;;;;;5027000;28;20209;-62
2022/06/23 04:04:39;;;;;;;7.43;4.15;;;13.30;99.90;;;;;;5010165;28;20217;-62
2022/06/23 04:07:33;;;;;;;5.07;4.18;;;13.40;99.90;;;;;;5012460;28;20614;-62
2022/06/23 04:10:02;;;;;;;6.45;4.47;;;13.50;99.90;;;;;;5025897;28;20702;-63
2022/06/23 04:12:30;;;;;;;5.93;4.20;;;13.50;99.90;;;;;;5008369;28;20206;-62
2022/06/23 04:15:05;;;;;;;6.18;4.43;;;13.60;99.90;;;;;;5022367;28;20594;-62
2022/06/23 04:17:40;;;;;;;8.23;4.25;;;13.60;99.90;;;;;;5029745;28;20237;-62
2022/06/23 04:20:14;;;;;;;4.93;4.13;;;13.70;99.90;;;;;;5005049;28;20233;-63
2022/06/23 04:22:46;;;;;;;5.97;4.25;;;13.70;99.90;;;;;;5014765;28;20207;-63
2022/06/23 04:25:19;;;;;;;5.40;4.32;;;13.80;99.90;;;;;;5014223;28;20200;-63
2022/06/23 04:27:49;;;;;;;4.97;4.32;;;13.90;99.90;;;;;;5025944;28;20208;-62
2022/06/23 04:30:27;;;;;;;6.05;4.72;;;14.00;99.90;;;;;;4995704;28;20214;-62
2022/06/23 04:32:59;;;;;;;5.40;4.70;;;14.10;99.90;;;;;;5025000;28;20205;-63
2022/06/23 04:35:29;;;;;;;5.90;4.82;;;14.20;99.90;;;;;;5006054;28;24935;-63
2022/06/23 04:38:04;;;;;;;5.30;4.30;;;14.20;99.90;;;;;;5021060;28;20198;-62
2022/06/23 04:40:35;;;;;;;5.82;4.85;;;14.20;99.90;;;;;;5020084;28;20663;-63
2022/06/23 04:43:06;;;;;;;7.55;4.70;;;14.30;99.90;;;;;;4996768;28;20211;-63
2022/06/23 04:45:51;;;;;;;5.55;4.75;;;14.40;99.90;;;;;;5021772;28;20206;-62
2022/06/23 04:48:22;;;;;;;5.75;5.07;;;14.50;99.90;;;;;;5004785;28;20240;-63
2022/06/23 04:50:55;;;;;;;6.68;5.38;;;14.60;99.90;;;;;;5024784;28;21081;-62
2022/06/23 04:53:31;;;;;;;7.68;5.00;;;14.70;99.90;;;;;;5004008;28;20542;-63
2022/06/23 04:56:05;;;;;;;8.10;5.57;;;14.90;99.90;;;;;;5030133;28;20284;-62
2022/06/23 04:58:35;;;;;;;11.02;5.93;;;15.00;99.90;;;;;;4999868;28;20897;-63
2022/06/23 05:01:02;;;;;;;8.50;5.68;;;15.10;99.90;;;;;;5027043;28;20197;-62
2022/06/23 05:03:35;;;;;;;7.75;6.13;;;15.20;99.90;;;;;;5015135;28;20217;-63
2022/06/23 05:06:08;;;;;;;6.50;5.10;;;15.20;99.90;;;;;;5020607;28;20671;-63
2022/06/23 05:08:41;;;;;;;8.57;5.38;;;15.30;99.90;;;;;;5006270;28;20225;-62
2022/06/23 05:11:17;;;;;;;5.82;5.18;;;15.40;99.90;;;;;;5009934;28;20202;-62
2022/06/23 05:13:48;;;;;;;7.70;5.40;;;15.50;99.90;;;;;;5017123;28;20208;-62
2022/06/23 05:16:22;;;;;;;6.55;5.55;;;15.60;99.90;;;;;;5016120;28;20232;-62
2022/06/23 05:18:52;;;;;;;6.88;5.70;;;15.70;99.90;;;;;;5027524;28;20221;-63
2022/06/23 05:21:22;;;;;;;7.68;5.50;;;15.70;99.90;;;;;;5018203;28;20185;-63
2022/06/23 05:23:59;;;;;;;12.80;5.70;;;15.80;99.90;;;;;;5012266;28;20252;-63
2022/06/23 05:26:29;;;;;;;10.25;5.47;;;15.80;99.90;;;;;;5011342;28;20316;-63
2022/06/23 05:29:02;;;;;;;5.97;5.38;;;15.80;99.90;;;;;;5017592;28;20209;-63
2022/06/23 05:31:34;;;;;;;6.07;5.50;;;16.00;99.90;;;;;;5005599;28;20205;-63
2022/06/23 05:34:06;;;;;;;8.80;5.35;;;16.10;99.90;;;;;;5021609;28;20681;-63
2022/06/23 05:36:42;;;;;;;6.40;5.25;;;16.10;99.90;;;;;;5011245;28;20275;-62
2022/06/23 05:39:18;;;;;;;9.25;5.22;;;16.30;99.90;;;;;;5010640;28;20311;-63
2022/06/23 05:41:49;;;;;;;8.50;5.40;;;16.20;99.90;;;;;;5013610;28;20204;-62
2022/06/23 05:44:20;;;;;;;6.88;5.72;;;16.20;99.90;;;;;;5022780;28;20209;-62
2022/06/23 05:46:48;;;;;;;7.07;5.30;;;16.40;99.90;;;;;;5017953;28;20225;-62
2022/06/23 05:49:19;;;;;;;8.65;5.75;;;16.60;99.90;;;;;;5003621;28;20225;-63
2022/06/23 05:51:53;;;;;;;7.35;5.82;;;16.50;99.90;;;;;;5017637;28;20225;-62
2022/06/23 05:54:25;;;;;;;7.72;5.05;;;16.60;99.90;;;;;;5002638;28;20236;-63
2022/06/23 05:56:58;;;;;;;8.60;5.45;;;16.70;99.90;;;;;;5031706;28;20206;-63
2022/06/23 05:59:32;;;;;;;6.70;5.00;;;16.80;99.90;;;;;;5025778;28;20233;-63
2022/06/23 06:02:05;;;;;;;7.72;5.40;;;16.80;99.90;;;;;;5014351;28;20205;-63
2022/06/23 06:04:36;;;;;;;8.95;4.85;;;16.90;99.90;;;;;;5019266;28;20225;-63
2022/06/23 06:07:05;;;;;;;6.35;4.85;;;17.00;99.90;;;;;;5006517;28;20197;-62
2022/06/23 06:09:40;;;;;;;6.93;5.03;;;17.10;99.90;;;;;;4994558;28;20709;-62
2022/06/23 06:12:12;;;;;;;7.68;5.03;;;17.20;99.90;;;;;;5007498;28;20224;-63
2022/06/23 06:14:44;;;;;;;8.20;4.82;;;17.20;99.90;;;;;;5025077;28;20224;-63
2022/06/23 06:17:19;;;;;;;7.25;4.57;;;17.40;99.90;;;;;;5020310;28;20240;-63
2022/06/23 06:19:47;;;;;;;5.60;4.38;;;17.40;99.90;;;;;;5030318;28;20232;-63
2022/06/23 06:22:43;;;;;;;9.40;5.55;;;17.50;99.90;;;;;;5009081;28;20694;-63
2022/06/23 06:25:20;;;;;;;5.88;4.18;;;17.50;99.90;;;;;;5010677;28;20209;-63
2022/06/23 06:27:46;;;;;;;6.55;4.72;;;17.60;99.90;;;;;;5022007;28;20205;-62
2022/06/23 06:30:17;;;;;;;8.35;4.47;;;17.60;99.90;;;;;;5007664;28;20208;-62
2022/06/23 06:32:46;;;;;;;6.90;4.65;;;17.60;99.90;;;;;;5028505;28;20202;-62
2022/06/23 06:35:25;;;;;;;7.70;4.68;;;17.70;99.90;;;;;;5022899;28;20711;-63
2022/06/23 06:37:54;;;;;;;8.23;4.20;;;17.80;99.90;;;;;;5002724;28;20221;-62
2022/06/23 06:40:23;;;;;;;8.75;4.28;;;17.80;99.90;;;;;;5008570;28;20225;-63
2022/06/23 06:42:52;;;;;;;6.50;4.60;;;17.80;99.90;;;;;;5020288;28;20213;-63
2022/06/23 06:45:25;;;;;;;5.57;4.55;;;18.00;99.90;;;;;;5002394;28;20206;-63
2022/06/23 06:47:52;;;;;;;7.75;4.78;;;18.10;99.90;;;;;;5033974;28;20251;-63
2022/06/23 06:50:32;;;;;;;7.75;4.50;;;18.10;99.90;;;;;;5015244;28;21123;-63
2022/06/23 06:53:03;;;;;;;7.72;5.32;;;18.10;99.90;;;;;;5026422;28;20194;-63
2022/06/23 06:55:38;;;;;;;8.25;4.93;;;18.20;99.90;;;;;;5002921;28;20251;-63
2022/06/23 06:58:13;;;;;;;5.72;4.47;;;18.20;99.90;;;;;;4998539;28;20209;-63
2022/06/23 07:00:45;;;;;;;7.40;4.43;;;18.20;99.90;;;;;;5009856;28;20228;-63
2022/06/23 07:03:16;;;;;;;8.02;5.00;;;18.20;99.90;;;;;;5019440;28;20254;-63
2022/06/23 07:05:49;;;;;;;6.88;4.70;;;18.30;99.90;;;;;;4999564;28;20229;-63
2022/06/23 07:08:20;;;;;;;6.10;4.22;;;18.40;99.90;;;;;;5008932;28;20877;-63
2022/06/23 07:10:52;;;;;;;8.98;4.90;;;18.30;99.90;;;;;;5010357;28;20229;-63
2022/06/23 07:13:25;;;;;;;7.90;4.75;;;18.40;99.90;;;;;;4988507;28;20312;-63
2022/06/23 07:15:56;;;;;;;9.68;4.75;;;18.40;99.90;;;;;;5018582;28;20212;-63
2022/06/23 07:18:27;;;;;;;5.75;4.07;;;19.80;99.90;;;;;;5018295;28;20218;-63
2022/06/23 07:21:02;;;;;;;6.50;4.95;;;18.70;99.90;;;;;;5017129;28;20228;-63
2022/06/23 07:23:34;;;;;;;6.10;4.32;;;18.70;99.90;;;;;;5025807;28;20240;-63
2022/06/23 07:26:17;;;;;;;5.90;4.15;;;18.70;99.90;;;;;;5012351;28;20278;-63
2022/06/23 07:28:47;;;;;;;4.40;3.95;;;18.80;99.90;;;;;;4998158;28;20718;-63
2022/06/23 07:31:20;;;;;;;6.75;3.90;;;18.80;99.90;;;;;;5000944;28;20252;-63
2022/06/23 07:33:52;;;;;;;4.22;3.83;;;18.90;99.90;;;;;;4996140;28;20221;-63
2022/06/23 07:36:27;;;;;;;6.63;4.35;;;19.00;99.90;;;;;;5007166;28;20225;-63
2022/06/23 07:38:59;;;;;;;5.40;4.20;;;19.10;99.90;;;;;;5009755;28;20216;-63
2022/06/23 07:41:32;;;;;;;6.40;4.30;;;19.20;99.90;;;;;;5014198;28;20270;-63
2022/06/23 07:44:03;;;;;;;5.97;3.95;;;19.30;99.90;;;;;;4997351;28;20237;-63
2022/06/23 07:46:32;;;;;;;6.97;4.50;;;19.40;99.90;;;;;;5013836;28;20215;-63
2022/06/23 07:48:59;;;;;;;4.22;3.45;;;19.40;99.90;;;;;;5002620;28;20206;-63
2022/06/23 07:51:26;;;;;;;4.10;3.70;;;19.40;99.90;;;;;;5008602;28;20236;-63
2022/06/23 07:53:56;;;;;;;4.35;3.47;;;19.60;99.90;;;;;;4997869;28;20198;-63
2022/06/23 07:56:26;;;;;;;4.57;3.63;;;19.60;99.90;;;;;;5013667;28;20633;-63
2022/06/23 07:58:56;;;;;;;8.90;3.60;;;;;;;;;;4993501;28;20709;-63
2022/06/23 08:01:28;;;;;;;4.72;3.35;;;19.70;99.90;;;;;;4989331;28;20240;-62
2022/06/23 08:04:00;;;;;;;5.85;3.00;;;19.40;99.90;;;;;;4988776;28;20226;-62
2022/06/23 08:06:28;;;;;;;6.85;3.17;;;19.90;99.90;;;;;;5015132;28;20198;-63
2022/06/23 08:08:58;;;;;;;3.70;3.20;;;20.00;99.90;;;;;;5004180;28;20213;-64
2022/06/23 08:14:19;;;;;;;4.35;2.97;;;20.20;99.90;;;;;;4976731;28;21969;-64
2022/06/23 08:16:51;;;;;;;3.72;3.15;;;20.30;99.90;;;;;;4994598;28;20263;-64
2022/06/23 08:19:31;;;;;;;4.60;3.10;;;20.40;99.90;;;;;;4989104;28;20221;-63
2022/06/23 08:22:06;;;;;;;3.40;3.10;;;20.30;99.90;;;;;;5002231;28;20233;-62
2022/06/23 08:24:36;;;;;;;9.18;3.10;;;20.60;99.90;;;;;;5011707;28;20236;-62
2022/06/23 08:27:07;;;;;;;4.75;3.00;;;20.80;99.90;;;;;;5019436;28;20252;-62
2022/06/23 08:29:38;;;;;;;3.80;2.67;;;20.70;99.90;;;;;;4981851;28;20260;-62
2022/06/23 08:32:06;;;;;;;5.95;3.00;;;20.80;99.90;;;;;;5000826;28;20292;-63
2022/06/23 08:34:35;;;;;;;3.60;2.70;;;20.80;99.90;;;;;;5003654;28;20225;-62
2022/06/23 08:37:09;;;;;;;3.13;2.60;;;20.70;99.90;;;;;;5023529;28;20274;-63
2022/06/23 08:39:43;;;;;;;3.35;2.80;;;20.60;99.90;;;;;;5003867;28;20225;-63
2022/06/23 08:42:17;;;;;;;5.28;2.65;;;20.80;99.90;;;;;;5001131;28;20247;-64
2022/06/23 08:44:52;;;;;;;3.05;2.50;;;20.80;99.90;;;;;;4993525;28;20213;-63
2022/06/23 08:47:26;;;;;;;8.18;2.63;;;20.80;99.90;;;;;;5003759;28;20224;-63
2022/06/23 08:49:57;;;;;;;2.78;2.53;;;20.80;99.90;;;;;;4989794;28;20226;-63
2022/06/23 08:52:32;;;;;;;6.05;3.10;;;20.80;99.90;;;;;;5017503;28;20609;-64
2022/06/23 08:55:05;;;;;;;5.30;2.60;;;20.50;99.90;;;;;;5017680;28;20973;-64
2022/06/23 08:57:37;;;;;;;3.40;3.10;;;21.10;99.90;;;;;;4992016;28;20232;-63
2022/06/23 09:00:10;;;;;;;5.45;2.60;;;21.10;99.90;;;;;;4987850;28;20225;-63
2022/06/23 09:02:45;;;;;;;5.07;2.72;;;21.20;99.90;;;;;;5006422;28;20226;-64
2022/06/23 09:05:20;;;;;;;3.75;2.85;;;21.20;99.90;;;;;;5002293;28;20201;-63
2022/06/23 09:07:55;;;;;;;5.47;2.85;;;21.20;99.90;;;;;;5016432;28;20679;-63
2022/06/23 09:10:31;;;;;;;3.17;2.42;;;21.20;99.90;;;;;;5000777;28;20256;-64
2022/06/23 09:13:10;;;;;;;5.32;2.78;;;21.30;99.90;;;;;;5009335;28;20209;-64
2022/06/23 09:16:12;;;;;;;3.05;2.80;;;21.40;99.90;;;;;;4981970;28;20221;-64
2022/06/23 09:19:10;;;;;;;3.50;2.65;;;21.40;99.90;;;;;;4998316;28;20303;-64
2022/06/23 09:21:48;;;;;;;5.07;3.05;;;21.40;99.90;;;;;;5003137;28;20838;-64
2022/06/23 09:24:41;;;;;;;6.07;3.67;;;21.30;99.90;;;;;;5000057;28;20554;-64
2022/06/23 09:27:16;;;;;;;7.20;3.33;;;21.50;99.90;;;;;;4992461;28;20213;-64
2022/06/23 09:29:56;;;;;;;4.68;2.88;;;21.90;99.90;;;;;;5006272;28;20306;-64
2022/06/23 09:32:43;;;;;;;4.22;2.70;;;21.60;99.90;;;;;;4978280;28;20698;-64
2022/06/23 09:35:33;;;;;;;7.93;2.85;;;21.80;99.90;;;;;;5002708;28;20228;-64
2022/06/23 09:38:16;;;;;;;5.20;2.80;;;21.70;99.90;;;;;;5016226;28;20674;-64
2022/06/23 09:40:58;;;;;;;4.47;2.88;;;21.80;99.90;;;;;;5014656;28;21067;-64
2022/06/23 09:43:58;;;;;;;4.68;3.25;;;21.80;99.90;;;;;;5009895;28;20197;-64
2022/06/23 09:46:49;;;;;;;5.03;3.38;;;21.80;99.90;;;;;;4979389;28;20217;-64
2022/06/23 09:49:39;;;;;;;3.80;2.88;;;21.80;99.90;;;;;;5006449;28;20236;-64
2022/06/23 09:52:39;;;;;;;8.38;2.97;;;22.00;99.90;;;;;;4995765;28;20212;-64
2022/06/23 09:55:34;;;;;;;11.43;3.17;;;22.00;99.90;;;;;;5024450;22;20380;-62
2022/06/23 09:58:25;;;;;;;7.75;3.00;;;22.10;99.90;;;;;;5009357;28;20753;-62
2022/06/23 10:01:04;;;;;;;4.43;3.05;;;22.40;99.90;;;;;;5019655;28;20248;-62
2022/06/23 10:03:45;;;;;;;11.25;3.20;;;22.40;99.90;;;;;;4995787;28;20216;-62
2022/06/23 10:06:43;;;;;;;3.33;2.67;;;22.90;99.90;;;;;;5025415;28;20682;-62
2022/06/23 10:09:21;;;;;;;2.70;2.50;;;22.90;99.90;;;;;;5032617;28;20231;-62
2022/06/23 10:12:09;;;;;;;7.88;2.88;;;23.10;99.90;;;;;;5016905;28;20208;-62
2022/06/23 10:14:55;;;;;;;5.72;2.58;;;23.10;99.90;;;;;;5038277;28;20209;-62
2022/06/23 10:17:46;;;;;;;2.97;2.55;;;23.10;99.90;;;;;;5034299;28;20221;-62
2022/06/23 10:20:48;;;;;;;3.85;2.63;;;23.20;99.90;;;;;;5007111;28;20229;-62
2022/06/23 10:23:35;;;;;;;6.60;2.38;;;23.40;99.90;;;;;;5029880;28;20220;-62
2022/06/23 10:26:18;;;;;;;6.50;2.97;;;23.40;99.90;;;;;;5048303;28;20227;-62
2022/06/23 10:29:07;;;;;;;4.53;2.92;;;23.50;99.90;;;;;;5042663;28;20330;-62
2022/06/23 10:31:48;;;;;;;6.50;2.67;;;23.70;99.90;;;;;;5036525;28;20205;-62
2022/06/23 10:34:36;;;;;;;4.20;2.40;;;23.60;99.90;;;;;;5032075;28;20200;-63
2022/06/23 10:37:30;;;;;;;3.65;2.60;;;23.60;99.90;;;;;;5027072;28;20225;-63
2022/06/23 10:40:18;;;;;;;2.97;2.30;;;23.60;99.90;;;;;;5028104;28;20205;-63
2022/06/23 10:42:57;;;;;;;8.05;2.90;;;23.60;99.90;;;;;;5049948;28;20208;-63
2022/06/23 10:45:36;;;;;;;4.90;2.38;;;23.80;99.90;;;;;;5034326;28;20196;-62
2022/06/23 10:48:55;;;;;;;2.53;2.33;;;23.80;99.90;;;;;;5047295;28;20193;-62
2022/06/23 10:51:49;;;;;;;3.15;2.15;;;23.90;99.90;;;;;;4998903;28;20235;-62
2022/06/23 10:54:41;;;;;;;4.50;2.28;;;23.80;99.90;;;;;;5038564;28;20573;-62
2022/06/23 10:57:23;;;;;;;2.65;2.10;;;23.90;99.90;;;;;;5026100;28;20197;-64
2022/06/23 11:00:07;;;;;;;2.85;2.20;;;24.20;99.90;;;;;;5021858;28;20267;-62
2022/06/23 11:03:03;;;;;;;3.67;2.25;;;24.20;99.90;;;;;;5048616;28;20228;-62
2022/06/23 11:05:56;;;;;;;2.50;2.25;;;24.20;99.90;;;;;;5048503;28;20203;-63
2022/06/23 11:08:37;;;;;;;3.65;2.10;;;24.20;99.90;;;;;;5014665;28;20223;-64
2022/06/23 11:11:18;;;;;;;4.45;2.10;;;24.30;99.90;;;;;;5036192;28;20203;-62
2022/06/23 11:13:54;;;;;;;3.58;2.20;;;24.40;99.90;;;;;;5048880;28;20204;-61
2022/06/23 11:16:32;;;;;;;2.85;1.90;;;24.50;99.90;;;;;;5024271;28;20244;-63
2022/06/23 11:19:17;;;;;;;3.33;2.10;;;24.80;99.90;;;;;;5013264;28;20201;-62
2022/06/23 11:22:05;;;;;;;6.70;2.10;;;25.00;99.90;;;;;;5024145;28;20718;-62
2022/06/23 11:24:40;;;;;;;3.90;2.03;;;24.90;99.90;;;;;;5011148;28;20225;-64
2022/06/23 11:27:19;;;;;;;4.63;1.98;;;24.90;99.90;;;;;;5036773;28;20197;-63
2022/06/23 11:30:05;;;;;;;3.47;2.03;;;25.00;99.90;;;;;;5032358;28;20736;-62
2022/06/23 11:32:44;;;;;;;4.85;2.17;;;24.90;99.90;;;;;;5016635;28;20224;-63
2022/06/23 11:35:32;;;;;;;5.68;2.10;;;25.00;99.90;;;;;;5018702;28;21021;-62
2022/06/23 11:38:32;;;;;;;3.28;1.83;;;24.90;99.90;;;;;;5010539;28;20225;-63
2022/06/23 11:41:21;;;;;;;7.53;1.80;;;24.90;99.90;;;;;;5000592;28;21210;-62
2022/06/23 11:44:05;;;;;;;2.10;1.90;;;25.00;99.90;;;;;;5042339;28;20217;-62
2022/06/23 11:46:35;;;;;;;2.55;2.00;;;25.60;99.90;;;;;;5018310;28;20731;-62
2022/06/23 11:49:19;;;;;;;7.10;1.73;;;24.80;99.90;;;;;;5021702;28;20201;-62
2022/06/23 11:52:06;;;;;;;3.80;2.00;;;24.90;99.90;;;;;;5029639;28;20202;-63
2022/06/23 11:54:57;;;;;;;3.63;1.70;;;24.90;99.90;;;;;;5006071;28;20236;-63
2022/06/23 11:57:44;;;;;;;3.42;1.92;;;25.30;99.90;;;;;;5030675;28;20231;-63
2022/06/23 12:00:14;;;;;;;2.22;1.83;;;25.30;99.90;;;;;;5037081;28;20236;-62
2022/06/23 12:02:52;;;;;;;7.93;2.30;;;25.30;99.90;;;;;;5008455;28;20236;-63
2022/06/23 12:05:29;;;;;;;4.32;2.15;;;25.30;99.90;;;;;;5044680;28;20199;-63
2022/06/23 12:08:23;;;;;;;5.32;1.92;;;25.20;99.90;;;;;;5000452;28;20752;-63
2022/06/23 12:10:50;;;;;;;2.83;1.90;;;25.60;99.90;;;;;;5002468;28;23939;-63
2022/06/23 12:13:16;;;;;;;2.85;2.03;;;25.10;99.90;;;;;;5025296;28;20212;-62
2022/06/23 12:15:48;;;;;;;2.63;2.13;;;25.10;99.90;;;;;;5033820;28;20197;-62
2022/06/23 12:18:20;;;;;;;2.35;1.85;;;25.30;99.90;;;;;;5036204;28;20580;-63
2022/06/23 12:20:52;;;;;;;6.13;1.77;;;25.30;99.90;;;;;;5036624;28;20228;-63
2022/06/23 12:23:25;;;;;;;3.72;2.10;;;25.30;99.90;;;;;;5039567;28;20274;-62
2022/06/23 12:26:02;;;;;;;2.33;1.73;;;25.60;99.90;;;;;;5019444;28;20224;-62
2022/06/23 12:28:36;;;;;;;2.53;1.60;;;25.50;99.90;;;;;;5031859;28;20252;-62
2022/06/23 12:31:10;;;;;;;2.20;1.92;;;25.40;99.90;;;;;;5025941;28;20236;-62
2022/06/23 12:33:45;;;;;;;4.35;2.00;;;25.40;99.90;;;;;;5022412;22;20600;-62
2022/06/23 12:36:20;;;;;;;2.25;2.05;;;25.40;99.90;;;;;;5042737;28;20250;-62
2022/06/23 12:38:53;;;;;;;3.10;2.38;;;25.40;99.90;;;;;;5021095;28;20223;-62
2022/06/23 12:41:24;;;;;;;4.80;2.45;;;25.40;99.90;;;;;;5022227;28;21502;-63
2022/06/23 12:43:57;;;;;;;3.40;2.00;;;25.50;99.90;;;;;;5009772;28;20208;-64
2022/06/23 12:46:34;;;;;;;4.38;2.13;;;25.70;99.90;;;;;;5046984;28;20231;-62
2022/06/23 12:49:21;;;;;;;2.03;1.80;;;25.80;99.90;;;;;;5018322;28;20255;-63
2022/06/23 12:52:01;;;;;;;2.63;1.98;;;26.00;99.90;;;;;;5024558;28;20206;-62
2022/06/23 12:54:53;;;;;;;2.47;2.08;;;25.50;99.90;;;;;;5030444;28;20207;-62
2022/06/23 12:57:34;;;;;;;5.53;2.15;;;25.90;99.90;;;;;;5026850;28;20244;-63
2022/06/23 13:00:10;;;;;;;6.07;2.15;;;25.80;99.90;;;;;;5031720;28;20207;-63
2022/06/23 13:02:38;;;;;;;3.60;1.83;;;;;;;;;;5026200;28;21096;-63
2022/06/23 13:05:14;;;;;;;3.13;2.00;;;25.90;99.90;;;;;;5021336;28;20200;-63
2022/06/23 13:07:46;;;;;;;2.55;1.80;;;25.90;99.90;;;;;;5041748;28;20200;-63
2022/06/23 13:10:19;;;;;;;5.70;2.20;;;26.00;99.90;;;;;;5022478;28;20243;-63
2022/06/23 13:12:53;;;;;;;4.00;2.00;;;26.00;99.90;;;;;;5019289;28;20533;-63
2022/06/23 13:15:31;;;;;;;4.50;1.60;;;26.20;99.90;;;;;;5031517;28;20201;-63
2022/06/23 13:18:03;;;;;;;2.65;2.00;;;26.40;99.90;;;;;;5029375;28;21004;-63
2022/06/23 13:20:36;;;;;;;3.15;1.70;;;26.20;99.90;;;;;;5028272;28;20226;-63
2022/06/23 13:23:06;;;;;;;3.08;1.70;;;26.20;99.90;;;;;;5037091;28;20281;-63
2022/06/23 13:25:36;;;;;;;2.47;2.17;;;26.30;99.90;;;;;;5015966;28;20778;-63
2022/06/23 13:28:06;;;;;;;2.10;1.85;;;26.80;99.90;;;;;;5015130;28;21022;-63
2022/06/23 13:30:43;;;;;;;2.38;1.77;;;26.30;99.90;;;;;;5025408;28;20209;-63
2022/06/23 13:33:17;;;;;;;4.15;2.25;;;26.30;99.90;;;;;;5041069;28;20220;-63
2022/06/23 13:35:51;;;;;;;1.92;1.83;;;26.40;99.90;;;;;;5025055;28;20213;-62
2022/06/23 13:38:24;;;;;;;2.17;1.55;;;26.50;99.90;;;;;;5022627;28;20224;-62
2022/06/23 13:40:56;;;;;;;3.88;1.58;;;26.60;99.90;;;;;;5016062;28;20205;-62
2022/06/23 13:43:31;;;;;;;3.30;1.60;;;26.70;99.90;;;;;;5038310;28;20189;-62